sensor_id;sensor_type;location;lat;lon;timestamp;temperature;humidity
55777;DHT22;54079;44.540;18.784;2023-09-18T00:00:51;19.10;99.90
55777;DHT22;54079;44.540;18.784;2023-09-18T00:03:21;19.10;99.90
55777;DHT22;54079;44.540;18.784;2023-09-18T00:05:51;19.10;99.90
55777;DHT22;54079;44.540;18.784;2023-09-18T00:08:19;19.00;99.90
55777;DHT22;54079;44.540;18.784;2023-09-18T00:10:49;18.80;99.90
55777;DHT22;54079;44.540;18.784;2023-09-18T00:13:16;18.70;99.90
55777;DHT22;54079;44.540;18.784;2023-09-18T00:15:42;18.60;99.90
55777;DHT22;54079;44.540;18.784;2023-09-18T00:18:10;18.70;99.90
55777;DHT22;54079;44.540;18.784;2023-09-18T00:20:36;18.80;99.90
55777;DHT22;54079;44.540;18.784;2023-09-18T00:23:02;18.80;99.90
55777;DHT22;54079;44.540;18.784;2023-09-18T00:25:28;18.70;99.90
55777;DHT22;54079;44.540;18.784;2023-09-18T00:27:54;18.80;99.90
55777;DHT22;54079;44.540;18.784;2023-09-18T00:30:20;18.80;99.90
55777;DHT22;54079;44.540;18.784;2023-09-18T00:32:46;18.80;99.90
55777;DHT22;54079;44.540;18.784;2023-09-18T00:35:12;18.70;99.90
55777;DHT22;54079;44.540;18.784;2023-09-18T00:37:38;18.70;99.90
55777;DHT22;54079;44.540;18.784;2023-09-18T00:40:06;18.70;99.90
55777;DHT22;54079;44.540;18.784;2023-09-18T00:42:32;18.70;99.90
55777;DHT22;54079;44.540;18.784;2023-09-18T00:44:58;18.70;99.90
55777;DHT22;54079;44.540;18.784;2023-09-18T00:47:24;18.70;99.90
55777;DHT22;54079;44.540;18.784;2023-09-18T00:49:52;18.60;99.90
55777;DHT22;54079;44.540;18.784;2023-09-18T00:52:20;18.70;99.90
55777;DHT22;54079;44.540;18.784;2023-09-18T00:54:47;18.60;99.90
55777;DHT22;54079;44.540;18.784;2023-09-18T00:57:13;18.60;99.90
55777;DHT22;54079;44.540;18.784;2023-09-18T00:59:40;18.40;99.90
55777;DHT22;54079;44.540;18.784;2023-09-18T01:02:06;18.50;99.90
55777;DHT22;54079;44.540;18.784;2023-09-18T01:04:33;18.60;99.90
55777;DHT22;54079;44.540;18.784;2023-09-18T01:07:00;18.50;99.90
55777;DHT22;54079;44.540;18.784;2023-09-18T01:09:32;18.30;99.90
55777;DHT22;54079;44.540;18.784;2023-09-18T01:12:08;18.30;99.90
55777;DHT22;54079;44.540;18.784;2023-09-18T01:14:48;18.20;99.90
55777;DHT22;54079;44.540;18.784;2023-09-18T01:17:16;18.40;99.90
55777;DHT22;54079;44.540;18.784;2023-09-18T01:19:46;18.40;99.90
55777;DHT22;54079;44.540;18.784;2023-09-18T01:22:14;18.40;99.90
55777;DHT22;54079;44.540;18.784;2023-09-18T01:24:41;18.50;99.90
55777;DHT22;54079;44.540;18.784;2023-09-18T01:27:15;18.40;99.90
55777;DHT22;54079;44.540;18.784;2023-09-18T01:29:44;18.50;99.90
55777;DHT22;54079;44.540;18.784;2023-09-18T01:32:10;18.70;99.90
55777;DHT22;54079;44.540;18.784;2023-09-18T01:34:46;18.70;99.90
55777;DHT22;54079;44.540;18.784;2023-09-18T01:37:13;18.70;99.90
55777;DHT22;54079;44.540;18.784;2023-09-18T01:39:39;18.80;99.90
55777;DHT22;54079;44.540;18.784;2023-09-18T01:42:07;18.90;99.90
55777;DHT22;54079;44.540;18.784;2023-09-18T01:44:35;19.00;99.90
55777;DHT22;54079;44.540;18.784;2023-09-18T01:47:07;19.00;99.90
55777;DHT22;54079;44.540;18.784;2023-09-18T01:49:38;19.00;99.90
55777;DHT22;54079;44.540;18.784;2023-09-18T01:52:06;18.90;99.90
55777;DHT22;54079;44.540;18.784;2023-09-18T01:54:32;18.90;99.90
55777;DHT22;54079;44.540;18.784;2023-09-18T01:56:59;18.90;99.90
55777;DHT22;54079;44.540;18.784;2023-09-18T01:59:26;18.80;99.90
55777;DHT22;54079;44.540;18.784;2023-09-18T02:01:52;18.80;99.90
55777;DHT22;54079;44.540;18.784;2023-09-18T02:04:22;18.70;99.90
55777;DHT22;54079;44.540;18.784;2023-09-18T02:06:50;18.70;99.90
55777;DHT22;54079;44.540;18.784;2023-09-18T02:09:17;18.80;99.90
55777;DHT22;54079;44.540;18.784;2023-09-18T02:11:45;18.80;99.90
55777;DHT22;54079;44.540;18.784;2023-09-18T02:14:12;18.70;99.90
55777;DHT22;54079;44.540;18.784;2023-09-18T02:16:39;18.70;99.90
55777;DHT22;54079;44.540;18.784;2023-09-18T02:19:08;18.70;99.90
55777;DHT22;54079;44.540;18.784;2023-09-18T02:21:37;18.70;99.90
55777;DHT22;54079;44.540;18.784;2023-09-18T02:24:03;18.50;99.90
55777;DHT22;54079;44.540;18.784;2023-09-18T02:26:30;18.50;99.90
55777;DHT22;54079;44.540;18.784;2023-09-18T02:28:59;18.30;99.90
55777;DHT22;54079;44.540;18.784;2023-09-18T02:31:26;18.30;99.90
55777;DHT22;54079;44.540;18.784;2023-09-18T02:33:52;18.40;99.90
55777;DHT22;54079;44.540;18.784;2023-09-18T02:36:18;18.20;99.90
55777;DHT22;54079;44.540;18.784;2023-09-18T02:38:44;18.00;99.90
55777;DHT22;54079;44.540;18.784;2023-09-18T02:41:10;18.00;99.90
55777;DHT22;54079;44.540;18.784;2023-09-18T02:43:36;18.10;99.90
55777;DHT22;54079;44.540;18.784;2023-09-18T02:46:06;18.20;99.90
55777;DHT22;54079;44.540;18.784;2023-09-18T02:48:32;18.20;99.90
55777;DHT22;54079;44.540;18.784;2023-09-18T02:51:02;18.20;99.90
55777;DHT22;54079;44.540;18.784;2023-09-18T02:53:29;18.30;99.90
55777;DHT22;54079;44.540;18.784;2023-09-18T02:55:57;18.20;99.90
55777;DHT22;54079;44.540;18.784;2023-09-18T02:58:23;18.30;99.90
55777;DHT22;54079;44.540;18.784;2023-09-18T03:00:52;18.30;99.90
55777;DHT22;54079;44.540;18.784;2023-09-18T03:03:19;18.30;99.90
55777;DHT22;54079;44.540;18.784;2023-09-18T03:05:45;18.30;99.90
55777;DHT22;54079;44.540;18.784;2023-09-18T03:08:12;18.20;99.90
55777;DHT22;54079;44.540;18.784;2023-09-18T03:10:42;18.00;99.90
55777;DHT22;54079;44.540;18.784;2023-09-18T03:13:09;18.10;99.90
55777;DHT22;54079;44.540;18.784;2023-09-18T03:15:35;18.20;99.90
55777;DHT22;54079;44.540;18.784;2023-09-18T03:18:03;18.20;99.90
55777;DHT22;54079;44.540;18.784;2023-09-18T03:20:30;18.20;99.90
55777;DHT22;54079;44.540;18.784;2023-09-18T03:22:58;18.20;99.90
55777;DHT22;54079;44.540;18.784;2023-09-18T03:25:25;18.00;99.90
55777;DHT22;54079;44.540;18.784;2023-09-18T03:27:52;18.10;99.90
55777;DHT22;54079;44.540;18.784;2023-09-18T03:30:19;18.20;99.90
55777;DHT22;54079;44.540;18.784;2023-09-18T03:32:45;18.20;99.90
55777;DHT22;54079;44.540;18.784;2023-09-18T03:35:11;18.10;99.90
55777;DHT22;54079;44.540;18.784;2023-09-18T03:37:48;18.00;99.90
55777;DHT22;54079;44.540;18.784;2023-09-18T03:40:15;17.90;99.90
55777;DHT22;54079;44.540;18.784;2023-09-18T03:42:41;18.00;99.90
55777;DHT22;54079;44.540;18.784;2023-09-18T03:45:08;17.90;99.90
55777;DHT22;54079;44.540;18.784;2023-09-18T03:47:35;17.70;99.90
55777;DHT22;54079;44.540;18.784;2023-09-18T03:50:08;17.80;99.90
55777;DHT22;54079;44.540;18.784;2023-09-18T03:52:34;17.90;99.90
55777;DHT22;54079;44.540;18.784;2023-09-18T03:55:00;17.80;99.90
55777;DHT22;54079;44.540;18.784;2023-09-18T03:57:26;17.70;99.90
55777;DHT22;54079;44.540;18.784;2023-09-18T03:59:52;17.70;99.90
55777;DHT22;54079;44.540;18.784;2023-09-18T04:02:18;17.80;99.90
55777;DHT22;54079;44.540;18.784;2023-09-18T04:04:44;17.90;99.90
55777;DHT22;54079;44.540;18.784;2023-09-18T04:07:10;17.90;99.90
55777;DHT22;54079;44.540;18.784;2023-09-18T04:09:37;17.90;99.90
55777;DHT22;54079;44.540;18.784;2023-09-18T04:12:04;18.00;99.90
55777;DHT22;54079;44.540;18.784;2023-09-18T04:14:31;17.90;99.90
55777;DHT22;54079;44.540;18.784;2023-09-18T04:16:57;17.80;99.90
55777;DHT22;54079;44.540;18.784;2023-09-18T04:19:23;17.80;99.90
55777;DHT22;54079;44.540;18.784;2023-09-18T04:21:49;17.70;99.90
55777;DHT22;54079;44.540;18.784;2023-09-18T04:24:15;17.90;99.90
55777;DHT22;54079;44.540;18.784;2023-09-18T04:26:41;18.00;99.90
55777;DHT22;54079;44.540;18.784;2023-09-18T04:29:08;17.90;99.90
55777;DHT22;54079;44.540;18.784;2023-09-18T04:31:34;17.70;99.90
55777;DHT22;54079;44.540;18.784;2023-09-18T04:34:00;17.80;99.90
55777;DHT22;54079;44.540;18.784;2023-09-18T04:36:26;18.00;99.90
55777;DHT22;54079;44.540;18.784;2023-09-18T04:38:52;18.10;99.90
55777;DHT22;54079;44.540;18.784;2023-09-18T04:41:18;18.10;99.90
55777;DHT22;54079;44.540;18.784;2023-09-18T04:43:44;18.10;99.90
55777;DHT22;54079;44.540;18.784;2023-09-18T04:46:10;18.10;99.90
55777;DHT22;54079;44.540;18.784;2023-09-18T04:48:36;18.10;99.90
55777;DHT22;54079;44.540;18.784;2023-09-18T04:51:03;18.10;99.90
55777;DHT22;54079;44.540;18.784;2023-09-18T04:53:30;18.20;99.90
55777;DHT22;54079;44.540;18.784;2023-09-18T04:55:57;18.30;99.90
55777;DHT22;54079;44.540;18.784;2023-09-18T04:58:23;18.10;99.90
55777;DHT22;54079;44.540;18.784;2023-09-18T05:00:56;18.30;99.90
55777;DHT22;54079;44.540;18.784;2023-09-18T05:03:24;18.50;99.90
55777;DHT22;54079;44.540;18.784;2023-09-18T05:05:51;18.60;99.90
55777;DHT22;54079;44.540;18.784;2023-09-18T05:08:16;18.70;99.90
55777;DHT22;54079;44.540;18.784;2023-09-18T05:10:43;18.80;99.90
55777;DHT22;54079;44.540;18.784;2023-09-18T05:13:09;18.90;99.90
55777;DHT22;54079;44.540;18.784;2023-09-18T05:15:35;18.90;99.90
55777;DHT22;54079;44.540;18.784;2023-09-18T05:18:03;18.90;99.90
55777;DHT22;54079;44.540;18.784;2023-09-18T05:20:30;19.00;99.90
55777;DHT22;54079;44.540;18.784;2023-09-18T05:22:57;19.10;99.90
55777;DHT22;54079;44.540;18.784;2023-09-18T05:25:24;19.20;99.90
55777;DHT22;54079;44.540;18.784;2023-09-18T05:27:52;19.30;99.90
55777;DHT22;54079;44.540;18.784;2023-09-18T05:30:28;19.30;99.90
55777;DHT22;54079;44.540;18.784;2023-09-18T05:32:58;19.30;99.90
55777;DHT22;54079;44.540;18.784;2023-09-18T05:35:31;19.50;99.90
55777;DHT22;54079;44.540;18.784;2023-09-18T05:37:57;19.50;99.90
55777;DHT22;54079;44.540;18.784;2023-09-18T05:40:24;19.60;99.90
55777;DHT22;54079;44.540;18.784;2023-09-18T05:42:54;19.50;99.90
55777;DHT22;54079;44.540;18.784;2023-09-18T05:45:21;19.70;99.90
55777;DHT22;54079;44.540;18.784;2023-09-18T05:47:48;19.90;99.90
55777;DHT22;54079;44.540;18.784;2023-09-18T05:50:14;20.00;99.90
55777;DHT22;54079;44.540;18.784;2023-09-18T05:52:44;20.00;99.90
55777;DHT22;54079;44.540;18.784;2023-09-18T05:55:10;20.30;99.90
55777;DHT22;54079;44.540;18.784;2023-09-18T05:57:37;20.40;99.90
55777;DHT22;54079;44.540;18.784;2023-09-18T06:00:03;20.50;99.90
55777;DHT22;54079;44.540;18.784;2023-09-18T06:02:30;20.30;99.90
55777;DHT22;54079;44.540;18.784;2023-09-18T06:04:58;20.50;99.90
55777;DHT22;54079;44.540;18.784;2023-09-18T06:07:28;20.50;99.90
55777;DHT22;54079;44.540;18.784;2023-09-18T06:09:57;20.60;99.90
55777;DHT22;54079;44.540;18.784;2023-09-18T06:12:23;20.80;99.90
55777;DHT22;54079;44.540;18.784;2023-09-18T06:14:50;21.00;99.90
55777;DHT22;54079;44.540;18.784;2023-09-18T06:17:16;21.30;99.90
55777;DHT22;54079;44.540;18.784;2023-09-18T06:19:43;21.40;99.90
55777;DHT22;54079;44.540;18.784;2023-09-18T06:22:09;21.60;99.90
55777;DHT22;54079;44.540;18.784;2023-09-18T06:24:36;21.50;99.90
55777;DHT22;54079;44.540;18.784;2023-09-18T06:27:03;21.80;99.90
55777;DHT22;54079;44.540;18.784;2023-09-18T06:29:33;22.40;99.90
55777;DHT22;54079;44.540;18.784;2023-09-18T06:31:59;22.80;99.70
55777;DHT22;54079;44.540;18.784;2023-09-18T06:34:26;24.50;97.00
55777;DHT22;54079;44.540;18.784;2023-09-18T06:36:52;27.60;91.90
55777;DHT22;54079;44.540;18.784;2023-09-18T06:39:18;31.40;79.60
55777;DHT22;54079;44.540;18.784;2023-09-18T06:41:45;34.30;69.80
55777;DHT22;54079;44.540;18.784;2023-09-18T06:44:11;36.50;63.70
55777;DHT22;54079;44.540;18.784;2023-09-18T06:46:37;38.30;59.80
55777;DHT22;54079;44.540;18.784;2023-09-18T06:49:05;39.60;56.60
55777;DHT22;54079;44.540;18.784;2023-09-18T06:51:31;40.70;54.40
55777;DHT22;54079;44.540;18.784;2023-09-18T06:53:57;41.60;53.00
55777;DHT22;54079;44.540;18.784;2023-09-18T06:56:26;42.30;51.40
55777;DHT22;54079;44.540;18.784;2023-09-18T06:58:52;43.10;50.30
55777;DHT22;54079;44.540;18.784;2023-09-18T07:01:18;43.60;49.50
55777;DHT22;54079;44.540;18.784;2023-09-18T07:03:48;44.10;48.60
55777;DHT22;54079;44.540;18.784;2023-09-18T07:06:15;45.00;48.20
55777;DHT22;54079;44.540;18.784;2023-09-18T07:08:50;45.40;47.20
55777;DHT22;54079;44.540;18.784;2023-09-18T07:11:16;45.80;47.10
55777;DHT22;54079;44.540;18.784;2023-09-18T07:13:43;46.40;46.30
55777;DHT22;54079;44.540;18.784;2023-09-18T07:16:10;47.00;45.60
55777;DHT22;54079;44.540;18.784;2023-09-18T07:18:36;47.00;44.90
55777;DHT22;54079;44.540;18.784;2023-09-18T07:21:02;47.30;44.90
55777;DHT22;54079;44.540;18.784;2023-09-18T07:23:28;47.90;44.40
55777;DHT22;54079;44.540;18.784;2023-09-18T07:25:54;48.40;43.50
55777;DHT22;54079;44.540;18.784;2023-09-18T07:28:20;48.80;43.00
55777;DHT22;54079;44.540;18.784;2023-09-18T07:30:47;49.20;42.80
55777;DHT22;54079;44.540;18.784;2023-09-18T07:33:13;49.40;42.40
55777;DHT22;54079;44.540;18.784;2023-09-18T07:35:50;50.00;42.00
55777;DHT22;54079;44.540;18.784;2023-09-18T07:38:19;50.30;41.40
55777;DHT22;54079;44.540;18.784;2023-09-18T07:40:45;50.10;40.70
55777;DHT22;54079;44.540;18.784;2023-09-18T07:43:13;50.70;40.90
55777;DHT22;54079;44.540;18.784;2023-09-18T07:45:39;50.90;40.30
55777;DHT22;54079;44.540;18.784;2023-09-18T07:48:07;51.20;40.20
55777;DHT22;54079;44.540;18.784;2023-09-18T07:50:34;51.30;40.00
55777;DHT22;54079;44.540;18.784;2023-09-18T07:53:01;52.00;40.20
55777;DHT22;54079;44.540;18.784;2023-09-18T07:55:27;51.80;39.70
55777;DHT22;54079;44.540;18.784;2023-09-18T07:57:53;52.20;39.40
55777;DHT22;54079;44.540;18.784;2023-09-18T08:00:19;52.60;39.20
55777;DHT22;54079;44.540;18.784;2023-09-18T08:02:48;53.20;39.10
55777;DHT22;54079;44.540;18.784;2023-09-18T08:05:16;53.20;38.80
55777;DHT22;54079;44.540;18.784;2023-09-18T08:07:42;53.30;38.50
55777;DHT22;54079;44.540;18.784;2023-09-18T08:10:09;53.80;38.10
55777;DHT22;54079;44.540;18.784;2023-09-18T08:12:35;54.20;38.50
55777;DHT22;54079;44.540;18.784;2023-09-18T08:15:01;54.00;38.20
55777;DHT22;54079;44.540;18.784;2023-09-18T08:17:28;53.40;38.30
55777;DHT22;54079;44.540;18.784;2023-09-18T08:19:54;53.20;38.20
55777;DHT22;54079;44.540;18.784;2023-09-18T08:22:21;53.10;38.20
55777;DHT22;54079;44.540;18.784;2023-09-18T08:24:47;53.50;38.30
55777;DHT22;54079;44.540;18.784;2023-09-18T08:27:16;53.50;38.20
55777;DHT22;54079;44.540;18.784;2023-09-18T08:29:43;54.40;37.70
55777;DHT22;54079;44.540;18.784;2023-09-18T08:32:09;53.50;37.80
55777;DHT22;54079;44.540;18.784;2023-09-18T08:34:35;54.70;37.90
55777;DHT22;54079;44.540;18.784;2023-09-18T08:37:02;55.00;37.60
55777;DHT22;54079;44.540;18.784;2023-09-18T08:39:29;55.10;36.90
55777;DHT22;54079;44.540;18.784;2023-09-18T08:41:59;54.80;37.50
55777;DHT22;54079;44.540;18.784;2023-09-18T08:44:28;55.10;37.10
55777;DHT22;54079;44.540;18.784;2023-09-18T08:46:55;54.60;37.10
55777;DHT22;54079;44.540;18.784;2023-09-18T08:49:23;55.10;37.10
55777;DHT22;54079;44.540;18.784;2023-09-18T08:51:55;55.80;36.90
55777;DHT22;54079;44.540;18.784;2023-09-18T08:54:24;55.50;36.70
55777;DHT22;54079;44.540;18.784;2023-09-18T08:56:54;54.90;37.00
55777;DHT22;54079;44.540;18.784;2023-09-18T08:59:21;55.20;36.60
55777;DHT22;54079;44.540;18.784;2023-09-18T09:01:48;54.40;36.90
55777;DHT22;54079;44.540;18.784;2023-09-18T09:04:14;55.00;37.00
55777;DHT22;54079;44.540;18.784;2023-09-18T09:06:40;54.70;36.30
55777;DHT22;54079;44.540;18.784;2023-09-18T09:09:06;54.80;36.40
55777;DHT22;54079;44.540;18.784;2023-09-18T09:11:34;55.20;36.30
55777;DHT22;54079;44.540;18.784;2023-09-18T09:14:10;55.10;35.90
55777;DHT22;54079;44.540;18.784;2023-09-18T09:16:52;54.00;37.00
55777;DHT22;54079;44.540;18.784;2023-09-18T09:19:19;49.40;37.10
55777;DHT22;54079;44.540;18.784;2023-09-18T09:21:52;45.10;39.50
55777;DHT22;54079;44.540;18.784;2023-09-18T09:24:39;41.90;40.00
55777;DHT22;54079;44.540;18.784;2023-09-18T09:27:05;39.00;42.40
55777;DHT22;54079;44.540;18.784;2023-09-18T09:29:31;38.00;44.40
55777;DHT22;54079;44.540;18.784;2023-09-18T09:32:12;37.30;45.00
55777;DHT22;54079;44.540;18.784;2023-09-18T09:34:40;36.70;46.20
55777;DHT22;54079;44.540;18.784;2023-09-18T09:37:06;36.20;46.70
55777;DHT22;54079;44.540;18.784;2023-09-18T09:39:33;36.00;47.40
55777;DHT22;54079;44.540;18.784;2023-09-18T09:42:03;35.80;47.50
55777;DHT22;54079;44.540;18.784;2023-09-18T09:44:33;34.80;47.30
55777;DHT22;54079;44.540;18.784;2023-09-18T09:46:59;34.90;48.40
55777;DHT22;54079;44.540;18.784;2023-09-18T09:49:25;34.90;47.90
55777;DHT22;54079;44.540;18.784;2023-09-18T09:51:59;33.70;47.80
55777;DHT22;54079;44.540;18.784;2023-09-18T09:54:34;33.70;49.60
55777;DHT22;54079;44.540;18.784;2023-09-18T09:57:02;33.60;49.10
55777;DHT22;54079;44.540;18.784;2023-09-18T09:59:28;33.30;50.10
55777;DHT22;54079;44.540;18.784;2023-09-18T10:01:55;33.60;49.10
55777;DHT22;54079;44.540;18.784;2023-09-18T10:04:24;34.00;49.60
55777;DHT22;54079;44.540;18.784;2023-09-18T10:06:56;34.20;49.20
55777;DHT22;54079;44.540;18.784;2023-09-18T10:09:23;34.20;49.20
55777;DHT22;54079;44.540;18.784;2023-09-18T10:11:52;33.90;49.40
55777;DHT22;54079;44.540;18.784;2023-09-18T10:14:30;33.80;49.70
55777;DHT22;54079;44.540;18.784;2023-09-18T10:17:00;33.90;49.10
55777;DHT22;54079;44.540;18.784;2023-09-18T10:19:40;34.20;48.50
55777;DHT22;54079;44.540;18.784;2023-09-18T10:22:24;34.00;49.10
55777;DHT22;54079;44.540;18.784;2023-09-18T10:24:57;33.80;48.30
55777;DHT22;54079;44.540;18.784;2023-09-18T10:27:26;33.20;50.00
55777;DHT22;54079;44.540;18.784;2023-09-18T10:29:54;32.80;50.30
55777;DHT22;54079;44.540;18.784;2023-09-18T10:32:21;33.00;50.70
55777;DHT22;54079;44.540;18.784;2023-09-18T10:34:48;33.20;50.50
55777;DHT22;54079;44.540;18.784;2023-09-18T10:37:15;32.80;50.20
55777;DHT22;54079;44.540;18.784;2023-09-18T10:39:42;32.80;50.20
55777;DHT22;54079;44.540;18.784;2023-09-18T10:42:09;32.70;49.80
55777;DHT22;54079;44.540;18.784;2023-09-18T10:44:36;32.20;50.30
55777;DHT22;54079;44.540;18.784;2023-09-18T10:47:07;31.90;51.60
55777;DHT22;54079;44.540;18.784;2023-09-18T10:49:35;32.10;50.60
55777;DHT22;54079;44.540;18.784;2023-09-18T10:52:01;32.30;50.30
55777;DHT22;54079;44.540;18.784;2023-09-18T10:54:31;32.70;50.40
55777;DHT22;54079;44.540;18.784;2023-09-18T10:56:58;33.10;50.00
55777;DHT22;54079;44.540;18.784;2023-09-18T10:59:24;33.30;49.80
55777;DHT22;54079;44.540;18.784;2023-09-18T11:01:50;33.60;50.00
55777;DHT22;54079;44.540;18.784;2023-09-18T11:04:19;33.60;49.70
55777;DHT22;54079;44.540;18.784;2023-09-18T11:14:50;32.50;49.40
55777;DHT22;54079;44.540;18.784;2023-09-18T11:20:08;32.90;50.80
55777;DHT22;54079;44.540;18.784;2023-09-18T11:22:36;33.40;50.10
55777;DHT22;54079;44.540;18.784;2023-09-18T11:28:24;33.00;49.60
55777;DHT22;54079;44.540;18.784;2023-09-18T11:30:56;33.10;49.60
55777;DHT22;54079;44.540;18.784;2023-09-18T11:33:43;33.30;49.90
55777;DHT22;54079;44.540;18.784;2023-09-18T11:36:35;33.60;50.70
55777;DHT22;54079;44.540;18.784;2023-09-18T11:39:01;33.80;49.70
55777;DHT22;54079;44.540;18.784;2023-09-18T11:41:35;33.90;49.50
55777;DHT22;54079;44.540;18.784;2023-09-18T11:46:40;33.40;50.20
55777;DHT22;54079;44.540;18.784;2023-09-18T11:49:11;33.20;50.80
55777;DHT22;54079;44.540;18.784;2023-09-18T11:51:37;33.20;50.20
55777;DHT22;54079;44.540;18.784;2023-09-18T11:54:05;33.30;50.10
55777;DHT22;54079;44.540;18.784;2023-09-18T11:56:34;33.30;50.70
55777;DHT22;54079;44.540;18.784;2023-09-18T11:59:00;33.50;50.10
55777;DHT22;54079;44.540;18.784;2023-09-18T12:01:30;32.90;49.30
55777;DHT22;54079;44.540;18.784;2023-09-18T12:04:04;32.80;50.50
55777;DHT22;54079;44.540;18.784;2023-09-18T12:06:41;33.10;50.60
55777;DHT22;54079;44.540;18.784;2023-09-18T12:09:08;33.00;50.30
55777;DHT22;54079;44.540;18.784;2023-09-18T12:11:34;33.20;50.10
55777;DHT22;54079;44.540;18.784;2023-09-18T12:14:01;33.20;49.90
55777;DHT22;54079;44.540;18.784;2023-09-18T12:16:37;33.20;51.00
55777;DHT22;54079;44.540;18.784;2023-09-18T12:19:04;33.10;50.50
55777;DHT22;54079;44.540;18.784;2023-09-18T12:21:32;33.10;50.20
55777;DHT22;54079;44.540;18.784;2023-09-18T12:23:58;33.20;51.00
55777;DHT22;54079;44.540;18.784;2023-09-18T12:26:25;33.20;49.80
55777;DHT22;54079;44.540;18.784;2023-09-18T12:28:52;33.40;49.80
55777;DHT22;54079;44.540;18.784;2023-09-18T12:31:18;33.50;49.70
55777;DHT22;54079;44.540;18.784;2023-09-18T12:33:44;33.00;49.70
55777;DHT22;54079;44.540;18.784;2023-09-18T12:36:12;32.70;50.30
55777;DHT22;54079;44.540;18.784;2023-09-18T12:38:40;32.70;50.50
55777;DHT22;54079;44.540;18.784;2023-09-18T12:41:06;32.90;50.10
55777;DHT22;54079;44.540;18.784;2023-09-18T12:43:42;33.10;49.70
55777;DHT22;54079;44.540;18.784;2023-09-18T12:46:09;32.90;49.80
55777;DHT22;54079;44.540;18.784;2023-09-18T12:48:39;33.10;50.50
55777;DHT22;54079;44.540;18.784;2023-09-18T12:51:12;33.00;50.50
55777;DHT22;54079;44.540;18.784;2023-09-18T12:53:39;33.10;50.30
55777;DHT22;54079;44.540;18.784;2023-09-18T12:56:10;33.00;49.90
55777;DHT22;54079;44.540;18.784;2023-09-18T12:58:38;33.00;51.30
55777;DHT22;54079;44.540;18.784;2023-09-18T13:01:08;33.00;51.10
55777;DHT22;54079;44.540;18.784;2023-09-18T13:03:40;32.60;51.00
55777;DHT22;54079;44.540;18.784;2023-09-18T13:06:11;32.30;51.40
55777;DHT22;54079;44.540;18.784;2023-09-18T13:08:38;32.30;50.80
55777;DHT22;54079;44.540;18.784;2023-09-18T13:11:04;32.60;51.50
55777;DHT22;54079;44.540;18.784;2023-09-18T13:13:32;32.70;50.60
55777;DHT22;54079;44.540;18.784;2023-09-18T13:16:00;33.00;50.70
55777;DHT22;54079;44.540;18.784;2023-09-18T13:18:29;33.00;51.30
55777;DHT22;54079;44.540;18.784;2023-09-18T13:20:57;33.00;50.70
55777;DHT22;54079;44.540;18.784;2023-09-18T13:23:31;33.10;50.40
55777;DHT22;54079;44.540;18.784;2023-09-18T13:26:03;33.00;50.70
55777;DHT22;54079;44.540;18.784;2023-09-18T13:28:30;32.90;50.40
55777;DHT22;54079;44.540;18.784;2023-09-18T13:30:57;32.90;50.90
55777;DHT22;54079;44.540;18.784;2023-09-18T13:33:25;33.00;50.80
55777;DHT22;54079;44.540;18.784;2023-09-18T13:35:52;33.10;51.40
55777;DHT22;54079;44.540;18.784;2023-09-18T13:38:19;33.10;50.60
55777;DHT22;54079;44.540;18.784;2023-09-18T13:40:47;33.20;50.60
55777;DHT22;54079;44.540;18.784;2023-09-18T13:43:13;33.20;50.30
55777;DHT22;54079;44.540;18.784;2023-09-18T13:45:44;33.10;50.50
55777;DHT22;54079;44.540;18.784;2023-09-18T13:48:11;32.90;51.60
55777;DHT22;54079;44.540;18.784;2023-09-18T13:50:37;33.10;51.70
55777;DHT22;54079;44.540;18.784;2023-09-18T13:53:04;33.10;50.90
55777;DHT22;54079;44.540;18.784;2023-09-18T13:55:32;33.20;50.50
55777;DHT22;54079;44.540;18.784;2023-09-18T13:57:58;33.20;50.00
55777;DHT22;54079;44.540;18.784;2023-09-18T14:00:24;33.20;49.20
55777;DHT22;54079;44.540;18.784;2023-09-18T14:02:52;32.90;50.10
55777;DHT22;54079;44.540;18.784;2023-09-18T14:05:17;32.90;49.50
55777;DHT22;54079;44.540;18.784;2023-09-18T14:07:45;32.90;49.70
55777;DHT22;54079;44.540;18.784;2023-09-18T14:10:11;32.50;48.90
55777;DHT22;54079;44.540;18.784;2023-09-18T14:12:38;32.40;48.80
55777;DHT22;54079;44.540;18.784;2023-09-18T14:15:07;32.40;49.20
55777;DHT22;54079;44.540;18.784;2023-09-18T14:17:38;32.50;49.00
55777;DHT22;54079;44.540;18.784;2023-09-18T14:20:05;32.60;49.40
55777;DHT22;54079;44.540;18.784;2023-09-18T14:22:32;32.70;48.80
55777;DHT22;54079;44.540;18.784;2023-09-18T14:24:58;32.60;48.40
55777;DHT22;54079;44.540;18.784;2023-09-18T14:27:24;32.60;48.30
55777;DHT22;54079;44.540;18.784;2023-09-18T14:29:50;32.40;48.30
55777;DHT22;54079;44.540;18.784;2023-09-18T14:32:16;32.20;48.90
55777;DHT22;54079;44.540;18.784;2023-09-18T14:34:42;32.30;49.10
55777;DHT22;54079;44.540;18.784;2023-09-18T14:37:09;32.30;52.10
55777;DHT22;54079;44.540;18.784;2023-09-18T14:39:35;32.30;52.10
55777;DHT22;54079;44.540;18.784;2023-09-18T14:42:01;32.30;50.30
55777;DHT22;54079;44.540;18.784;2023-09-18T14:44:27;32.40;51.30
55777;DHT22;54079;44.540;18.784;2023-09-18T14:46:54;32.60;50.80
55777;DHT22;54079;44.540;18.784;2023-09-18T14:49:20;32.80;50.90
55777;DHT22;54079;44.540;18.784;2023-09-18T14:51:46;32.80;50.70
55777;DHT22;54079;44.540;18.784;2023-09-18T14:54:13;32.90;50.20
55777;DHT22;54079;44.540;18.784;2023-09-18T14:56:39;32.80;49.40
55777;DHT22;54079;44.540;18.784;2023-09-18T14:59:06;32.80;49.80
55777;DHT22;54079;44.540;18.784;2023-09-18T15:01:35;32.70;50.20
55777;DHT22;54079;44.540;18.784;2023-09-18T15:04:01;32.70;50.30
55777;DHT22;54079;44.540;18.784;2023-09-18T15:06:27;32.60;51.20
55777;DHT22;54079;44.540;18.784;2023-09-18T15:08:54;32.50;51.70
55777;DHT22;54079;44.540;18.784;2023-09-18T15:11:20;32.50;51.40
55777;DHT22;54079;44.540;18.784;2023-09-18T15:13:46;32.50;51.30
55777;DHT22;54079;44.540;18.784;2023-09-18T15:16:12;32.50;52.30
55777;DHT22;54079;44.540;18.784;2023-09-18T15:18:38;32.60;52.20
55777;DHT22;54079;44.540;18.784;2023-09-18T15:21:07;32.70;51.70
55777;DHT22;54079;44.540;18.784;2023-09-18T15:23:33;32.70;52.70
55777;DHT22;54079;44.540;18.784;2023-09-18T15:25:59;32.70;53.50
55777;DHT22;54079;44.540;18.784;2023-09-18T15:28:26;32.70;53.30
55777;DHT22;54079;44.540;18.784;2023-09-18T15:30:54;32.60;54.10
55777;DHT22;54079;44.540;18.784;2023-09-18T15:33:21;32.50;53.90
55777;DHT22;54079;44.540;18.784;2023-09-18T15:35:51;32.40;54.20